Arden, Nevada
Current Conditions -  °F | °C
As of 6:56 AM on Friday 19 Dec 2014 (Local Time) from KLAS Reporting Station
Broken Clouds Broken Clouds  
Wind Chill: 37°   Ceiling: 25000
Heat Index: 42°   Visibility: 10mi
Dew Point: 35°   Wind: 8mph
Humidity: 76%   Direction: 210°SSW
Pressure: 30.2"   Gusts: NA
Location:  36.079°N, 115.211°W
Report Text: KLAS 191456Z 21007KT 10SM BKN250 06/02 A3020 RMK AO2 SLP228 T00560017 51006
Loading
Personal Weather Stations






























Interactive Weather Map New forecast layout! Learn more

10-Day Weather Forecast

Advertisements
Track Severe Weather on mobile